Strona główna
METAR-TAF:

METAR-TAF

Lotnisko :

Port lotniczy Luksor

Luksor, Egipt

Szerokość geograficzna: 25-40N, Długość geograficzna: 032-42E, wysokość: 93 m

Aktualna obserwacja pogody

Raport powstał 1 godzina i 1 minut temu, godzina 09:00 UTC
Wiatr 8 kt od zachodnio-północny zachód
Temperatura 24°C
Wilgotność 34%
Ciśnienie 1015 hPa
Widzialność 10 km lub więcej
Brak chmur poniżej 1500 m i brak chmur cumulonimbus

METAR: HELX 100900Z 30008KT CAVOK 24/07 Q1015 NOSIG

czas: 12:01 (10:01 UTC)

Prognoza

Raport powstał 5 godziny i 1 minut temu, godzina 05:00 UTC
Prognoza ważna od 10 godzina 06 UTC do 11 godzina 12 UTC
Wiatr 8 kt od północny zachód
Widzialność 10 km lub więcej
Brak chmur poniżej 1500 m i brak chmur cumulonimbus
Przejściowo
od 10 godzina 06 UTC do 10 godzina 12 UTC

TAF: HELX 100500Z 1006/1112 32008KT CAVOK TEMPO 1006/1012 3000HZ NSC

Obserwacja i prognoza pogody dla ponad 4000 lotnisk (raport METAR i TAF).

Dostępne stacje oznaczono żółtymi i czerwonymi punktami na mapie.

Najedź kursorem aby zobaczyć nazwę stacji.

Kliknij aby zobaczyć obserwacje i prognozy pogody.

Aby zmienić mapę: kliknij na zielony przycisk z czarnym krzyżykiem, aby powiększyć; na zielony przycisk z myślnikiem, aby pomniejszyć; na zielone strzałki, aby przejść do map sąsiednich.


METAR-TAF: